Time;durP1;ratioP1;P1;durP2;ratioP2;P2;SDS_P1;SDS_P2;PMS_P1;PMS_P2;Temp;Humidity;BMP_temperature;BMP_pressure;BME280_temperature;BME280_humidity;BME280_pressure;Samples;Min_cycle;Max_cycle;Signal;HPM_P1;HPM_P2
2023/09/13 00:01:53;;;;;;;9.90;4.77;;;21.10;17.90;;;;;;4985248;28;20488;-63
2023/09/13 00:04:20;;;;;;;10.87;4.90;;;21.10;17.90;;;;;;4986585;28;20503;-63
2023/09/13 00:06:48;;;;;;;12.10;5.00;;;21.10;17.80;;;;;;4988573;28;20592;-63
2023/09/13 00:09:15;;;;;;;8.20;5.00;;;21.10;17.80;;;;;;4988528;28;20485;-64
2023/09/13 00:11:42;;;;;;;8.13;4.63;;;21.10;17.70;;;;;;4986361;28;20495;-64
2023/09/13 00:14:09;;;;;;;10.43;5.27;;;21.10;17.60;;;;;;4985670;28;21244;-63
2023/09/13 00:16:35;;;;;;;8.07;5.23;;;21.10;17.70;;;;;;4985341;28;20465;-65
2023/09/13 00:19:04;;;;;;;9.10;4.70;;;21.10;17.80;;;;;;4987987;28;20461;-63
2023/09/13 00:21:31;;;;;;;8.17;4.87;;;21.10;18.00;;;;;;4986769;28;20550;-63
2023/09/13 00:23:58;;;;;;;7.77;5.47;;;21.10;18.00;;;;;;4985744;28;20496;-64
2023/09/13 00:26:25;;;;;;;9.03;5.23;;;21.10;18.00;;;;;;4987675;28;20520;-63
2023/09/13 00:28:52;;;;;;;9.37;5.50;;;21.00;18.10;;;;;;4988500;28;20472;-64
2023/09/13 00:31:19;;;;;;;9.07;6.03;;;21.00;18.20;;;;;;4986506;28;21310;-64
2023/09/13 00:33:45;;;;;;;9.60;5.47;;;21.00;18.10;;;;;;4987973;28;20484;-63
2023/09/13 00:36:13;;;;;;;8.63;5.70;;;21.00;18.10;;;;;;4986985;28;20464;-63
2023/09/13 00:38:40;;;;;;;9.83;6.10;;;21.00;18.10;;;;;;4986549;28;20487;-64
2023/09/13 00:41:07;;;;;;;9.57;5.73;;;21.00;18.00;;;;;;4987654;28;20460;-64
2023/09/13 00:43:34;;;;;;;7.60;4.90;;;21.00;18.00;;;;;;4986816;28;20496;-64
2023/09/13 00:46:01;;;;;;;9.90;6.40;;;20.90;18.10;;;;;;4987742;28;20564;-64
2023/09/13 00:48:29;;;;;;;9.50;6.00;;;20.90;18.10;;;;;;4983822;28;20929;-64
2023/09/13 00:50:57;;;;;;;8.37;5.50;;;20.90;18.10;;;;;;4986855;28;20825;-64
2023/09/13 00:53:26;;;;;;;9.20;5.33;;;20.90;18.10;;;;;;4983019;28;20481;-64
2023/09/13 00:55:53;;;;;;;8.30;5.17;;;20.80;18.20;;;;;;4987054;28;20478;-63
2023/09/13 00:58:20;;;;;;;7.83;5.60;;;20.80;18.30;;;;;;4987698;28;20920;-63
2023/09/13 01:00:49;;;;;;;9.33;5.70;;;20.80;18.40;;;;;;4982285;28;20471;-63
2023/09/13 01:03:17;;;;;;;10.70;5.60;;;20.70;18.60;;;;;;4985743;28;21006;-63
2023/09/13 01:05:45;;;;;;;13.20;6.40;;;20.60;18.60;;;;;;4985851;28;20491;-64
2023/09/13 01:08:12;;;;;;;8.73;5.63;;;20.60;18.70;;;;;;4988298;28;20480;-63
2023/09/13 01:10:40;;;;;;;8.80;5.53;;;20.60;18.80;;;;;;4985422;28;20952;-63
2023/09/13 01:13:07;;;;;;;9.73;5.93;;;20.60;18.80;;;;;;4986431;28;20472;-63
2023/09/13 01:15:39;;;;;;;8.03;5.10;;;20.60;18.80;;;;;;4987183;28;20471;-63
2023/09/13 01:18:09;;;;;;;8.30;5.47;;;20.60;18.90;;;;;;4985748;28;20500;-63
2023/09/13 01:20:53;;;;;;;9.27;5.13;;;20.60;18.90;;;;;;4984891;28;20464;-63
2023/09/13 01:23:36;;;;;;;10.63;5.63;;;20.60;18.90;;;;;;4985709;28;20492;-63
2023/09/13 01:26:30;;;;;;;12.10;5.20;;;20.60;18.70;;;;;;4984886;28;21118;-63
2023/09/13 01:29:02;;;;;;;8.67;5.20;;;20.50;18.80;;;;;;4985868;28;20485;-63
2023/09/13 01:31:31;;;;;;;7.00;5.30;;;20.50;18.80;;;;;;4985990;28;21165;-63
2023/09/13 01:33:58;;;;;;;8.30;5.60;;;20.50;18.80;;;;;;4984791;28;21164;-63
2023/09/13 01:36:25;;;;;;;8.90;5.40;;;20.50;18.80;;;;;;4979107;28;20464;-63
2023/09/13 01:38:52;;;;;;;8.07;5.30;;;20.50;19.10;;;;;;4987377;28;20472;-63
2023/09/13 01:41:23;;;;;;;9.00;5.60;;;20.50;19.30;;;;;;4985884;28;20988;-63
2023/09/13 01:43:53;;;;;;;8.40;4.57;;;20.50;19.40;;;;;;4985005;28;20515;-63
2023/09/13 01:46:27;;;;;;;11.03;4.90;;;20.40;19.60;;;;;;4985725;28;20988;-64
2023/09/13 01:48:55;;;;;;;8.97;5.37;;;20.50;19.60;;;;;;4984855;28;20987;-63
2023/09/13 01:51:22;;;;;;;7.20;4.90;;;20.50;19.60;;;;;;4985417;28;20479;-63
2023/09/13 01:53:49;;;;;;;10.37;5.73;;;20.50;20.00;;;;;;4986082;28;20900;-63
2023/09/13 01:56:21;;;;;;;9.40;4.70;;;20.50;20.00;;;;;;4984538;28;20503;-62
2023/09/13 01:58:47;;;;;;;9.47;5.10;;;20.50;20.00;;;;;;4985944;28;20469;-62
2023/09/13 02:01:14;;;;;;;8.83;5.30;;;20.50;20.10;;;;;;4984639;28;20488;-62
2023/09/13 02:03:42;;;;;;;9.30;5.17;;;20.50;20.30;;;;;;4984876;28;20508;-62
2023/09/13 02:06:09;;;;;;;8.30;5.50;;;20.50;20.50;;;;;;4985250;28;20489;-62
2023/09/13 02:08:37;;;;;;;8.80;5.73;;;20.50;20.70;;;;;;4988658;28;21007;-62
2023/09/13 02:11:04;;;;;;;8.93;5.87;;;20.50;20.90;;;;;;4987329;28;20487;-62
2023/09/13 02:13:30;;;;;;;9.87;5.97;;;20.50;20.90;;;;;;4984837;28;21071;-62
2023/09/13 02:15:57;;;;;;;8.50;5.00;;;20.50;20.90;;;;;;4985203;28;20456;-62
2023/09/13 02:18:24;;;;;;;7.40;4.77;;;20.50;20.90;;;;;;4984897;28;20471;-62
2023/09/13 02:20:52;;;;;;;11.80;6.30;;;20.40;21.00;;;;;;4986484;28;20984;-64
2023/09/13 02:23:19;;;;;;;8.53;5.73;;;20.40;21.20;;;;;;4985429;28;20485;-63
2023/09/13 02:25:45;;;;;;;7.70;5.90;;;20.50;21.50;;;;;;4988106;28;20487;-62
2023/09/13 02:28:13;;;;;;;8.33;5.80;;;20.40;21.70;;;;;;4990772;28;20468;-62
2023/09/13 02:30:40;;;;;;;9.90;5.10;;;20.40;21.80;;;;;;4989723;28;20464;-62
2023/09/13 02:33:07;;;;;;;8.73;5.80;;;20.40;21.80;;;;;;4985655;28;20477;-62
2023/09/13 02:35:34;;;;;;;9.53;5.33;;;20.40;21.90;;;;;;4986601;28;20829;-63
2023/09/13 02:38:02;;;;;;;10.53;5.83;;;20.40;21.90;;;;;;4990788;28;20468;-62
2023/09/13 02:40:28;;;;;;;8.43;5.13;;;20.50;22.30;;;;;;4989753;28;21039;-62
2023/09/13 02:42:55;;;;;;;10.33;6.27;;;20.40;21.60;;;;;;4986612;28;20461;-63
2023/09/13 02:45:22;;;;;;;10.27;6.47;;;20.40;21.50;;;;;;4989360;28;20488;-63
2023/09/13 02:47:48;;;;;;;8.03;5.23;;;20.40;21.60;;;;;;4989743;28;20468;-63
2023/09/13 02:50:15;;;;;;;9.20;5.53;;;20.40;21.50;;;;;;4989952;28;21134;-63
2023/09/13 02:52:42;;;;;;;8.60;5.30;;;20.40;21.50;;;;;;4986048;28;20468;-62
2023/09/13 02:55:11;;;;;;;11.77;6.53;;;20.40;21.50;;;;;;4990105;28;20516;-62
2023/09/13 02:57:37;;;;;;;12.97;6.77;;;20.50;21.70;;;;;;4988586;28;20495;-62
2023/09/13 03:00:06;;;;;;;7.73;5.07;;;20.50;21.80;;;;;;4989769;28;20909;-62
2023/09/13 03:02:33;;;;;;;9.03;5.80;;;20.40;21.80;;;;;;4986854;28;20714;-63
2023/09/13 03:04:59;;;;;;;8.87;5.67;;;20.40;22.00;;;;;;4985267;28;20516;-62
2023/09/13 03:07:26;;;;;;;9.57;6.20;;;20.40;21.90;;;;;;4990318;28;20552;-62
2023/09/13 03:09:54;;;;;;;7.37;5.53;;;20.40;21.60;;;;;;4986404;28;20473;-63
2023/09/13 03:12:22;;;;;;;9.03;6.17;;;20.50;21.70;;;;;;4988716;28;20461;-62
2023/09/13 03:14:48;;;;;;;10.63;6.40;;;20.50;21.70;;;;;;4988373;28;20484;-62
2023/09/13 03:17:15;;;;;;;9.80;6.37;;;20.40;21.60;;;;;;4990362;28;20573;-62
2023/09/13 03:19:42;;;;;;;8.80;5.67;;;20.40;21.40;;;;;;4987600;28;20468;-62
2023/09/13 03:22:08;;;;;;;8.57;5.53;;;20.40;21.50;;;;;;4989484;28;20965;-62
2023/09/13 03:24:35;;;;;;;12.77;7.73;;;20.50;21.50;;;;;;4986750;28;20523;-62
2023/09/13 03:27:02;;;;;;;12.80;6.33;;;20.50;21.40;;;;;;4986781;28;20488;-62
2023/09/13 03:29:30;;;;;;;9.83;5.90;;;20.40;21.50;;;;;;4985087;28;20476;-62
2023/09/13 03:31:57;;;;;;;9.67;5.97;;;20.40;21.50;;;;;;4981940;28;20473;-62
2023/09/13 03:34:23;;;;;;;8.07;6.30;;;20.40;21.60;;;;;;4985614;28;20492;-63
2023/09/13 03:36:50;;;;;;;10.67;7.20;;;20.40;21.70;;;;;;4982325;28;20984;-63
2023/09/13 03:39:17;;;;;;;11.40;6.13;;;20.40;21.60;;;;;;4982625;28;20476;-64
2023/09/13 03:41:44;;;;;;;7.80;5.90;;;20.50;21.90;;;;;;4984598;28;20476;-64
2023/09/13 03:44:10;;;;;;;8.80;5.70;;;20.40;22.20;;;;;;4987028;28;20860;-64
2023/09/13 03:46:39;;;;;;;7.67;6.30;;;20.40;22.20;;;;;;4985875;28;20512;-64
2023/09/13 03:49:05;;;;;;;9.37;6.40;;;20.50;23.10;;;;;;4988905;28;20461;-64
2023/09/13 03:51:32;;;;;;;7.80;5.33;;;20.40;22.80;;;;;;4989793;28;20479;-63
2023/09/13 03:53:59;;;;;;;10.80;6.23;;;20.40;22.80;;;;;;4989740;28;20477;-64
2023/09/13 03:56:26;;;;;;;8.57;5.60;;;20.40;23.10;;;;;;4986941;28;20465;-65
2023/09/13 03:58:53;;;;;;;10.57;6.50;;;20.40;23.00;;;;;;4984704;28;20468;-66
2023/09/13 04:01:19;;;;;;;12.47;6.33;;;20.40;23.20;;;;;;4987605;28;20488;-66
2023/09/13 04:03:47;;;;;;;7.57;6.20;;;20.40;23.30;;;;;;4985011;28;20835;-67
2023/09/13 04:06:14;;;;;;;10.50;7.27;;;20.40;23.40;;;;;;4991110;28;20486;-67
2023/09/13 04:08:41;;;;;;;9.40;7.00;;;20.40;23.60;;;;;;4989391;28;20469;-66
2023/09/13 04:11:10;;;;;;;11.23;6.43;;;20.40;23.80;;;;;;4990630;28;20460;-65
2023/09/13 04:13:36;;;;;;;9.90;6.07;;;20.40;24.00;;;;;;4989926;28;20480;-66
2023/09/13 04:16:03;;;;;;;11.47;6.60;;;20.40;24.00;;;;;;4989860;28;20984;-66
2023/09/13 04:18:30;;;;;;;11.37;7.33;;;20.40;23.90;;;;;;4984031;28;20449;-66
2023/09/13 04:20:58;;;;;;;9.73;6.20;;;20.40;24.00;;;;;;4989736;28;20457;-66
2023/09/13 04:23:25;;;;;;;11.80;6.63;;;20.30;24.20;;;;;;4988491;28;20487;-66
2023/09/13 04:25:53;;;;;;;13.23;6.50;;;20.30;24.00;;;;;;4995612;28;20531;-66
2023/09/13 04:28:20;;;;;;;9.33;6.73;;;20.30;24.40;;;;;;5031254;23;20510;-67
2023/09/13 04:30:46;;;;;;;11.33;6.90;;;20.20;24.40;;;;;;5013735;28;20479;-68
2023/09/13 04:33:13;;;;;;;9.27;6.93;;;20.20;24.80;;;;;;5021389;28;20479;-68
2023/09/13 04:35:40;;;;;;;8.87;6.40;;;20.20;24.70;;;;;;5005157;28;20459;-68
2023/09/13 04:38:08;;;;;;;10.10;6.83;;;20.20;24.90;;;;;;5013213;28;20472;-68
2023/09/13 04:40:35;;;;;;;11.13;6.73;;;20.10;25.00;;;;;;5019165;28;20477;-68
2023/09/13 04:43:23;;;;;;;11.73;6.37;;;20.10;25.00;;;;;;5020477;28;20474;-68
2023/09/13 04:45:51;;;;;;;14.70;7.30;;;20.00;25.30;;;;;;5018385;28;20904;-68
2023/09/13 04:48:18;;;;;;;8.93;6.00;;;20.00;25.10;;;;;;5019824;28;21447;-68
2023/09/13 04:50:45;;;;;;;9.03;6.77;;;20.00;25.40;;;;;;5013390;28;20471;-68
2023/09/13 04:53:13;;;;;;;9.73;7.00;;;20.00;25.40;;;;;;5009186;28;20865;-68
2023/09/13 04:55:44;;;;;;;13.00;7.10;;;19.90;25.60;;;;;;5021308;28;20459;-68
2023/09/13 04:58:11;;;;;;;12.53;7.10;;;19.90;25.90;;;;;;5006764;28;20540;-69
2023/09/13 05:00:38;;;;;;;11.23;6.90;;;19.90;26.00;;;;;;5010381;28;21219;-68
2023/09/13 05:03:05;;;;;;;11.73;7.50;;;19.80;26.00;;;;;;5017176;28;20460;-68
2023/09/13 05:05:31;;;;;;;9.30;6.70;;;19.80;26.00;;;;;;5018858;28;20458;-68
2023/09/13 05:07:58;;;;;;;10.30;6.87;;;19.80;25.90;;;;;;5011569;28;20484;-68
2023/09/13 05:10:26;;;;;;;10.70;7.27;;;19.80;25.90;;;;;;5005062;28;20467;-68
2023/09/13 05:12:53;;;;;;;9.10;6.57;;;19.80;26.10;;;;;;5015446;28;20483;-68
2023/09/13 05:15:19;;;;;;;11.87;7.40;;;19.80;25.80;;;;;;5009788;28;20456;-68
2023/09/13 05:17:46;;;;;;;11.10;7.40;;;19.80;25.70;;;;;;5002394;28;20858;-68
2023/09/13 05:20:13;;;;;;;9.50;6.63;;;19.80;25.70;;;;;;5009734;28;20459;-68
2023/09/13 05:22:39;;;;;;;10.30;7.17;;;19.80;25.70;;;;;;5010877;28;20456;-68
2023/09/13 05:25:07;;;;;;;10.43;7.17;;;19.80;25.80;;;;;;5006797;28;20480;-68
2023/09/13 05:27:35;;;;;;;10.53;7.47;;;19.90;25.70;;;;;;5012552;28;20487;-68
2023/09/13 05:30:02;;;;;;;13.80;7.47;;;19.90;25.60;;;;;;5009848;28;20459;-68
2023/09/13 05:32:29;;;;;;;9.90;6.60;;;19.90;25.70;;;;;;5012387;28;20479;-68
2023/09/13 05:34:56;;;;;;;12.00;7.43;;;20.00;25.50;;;;;;5007850;28;20480;-69
2023/09/13 05:37:22;;;;;;;9.50;6.63;;;20.00;25.30;;;;;;5010192;28;20468;-68
2023/09/13 05:39:49;;;;;;;9.70;7.90;;;20.10;25.20;;;;;;5007916;28;20460;-68
2023/09/13 05:42:16;;;;;;;11.03;6.80;;;20.20;25.20;;;;;;5002133;28;20473;-69
2023/09/13 05:44:45;;;;;;;9.50;6.60;;;20.30;25.00;;;;;;5007328;28;20486;-68
2023/09/13 05:47:11;;;;;;;9.90;7.83;;;20.40;24.70;;;;;;5011804;28;20488;-68
2023/09/13 05:49:38;;;;;;;10.37;6.97;;;20.50;24.30;;;;;;5011487;28;20456;-68
2023/09/13 05:52:05;;;;;;;14.00;6.67;;;20.80;24.50;;;;;;5004636;28;20468;-68
2023/09/13 05:54:32;;;;;;;9.80;6.53;;;21.20;24.60;;;;;;5014442;28;20483;-68
2023/09/13 05:56:59;;;;;;;12.10;7.53;;;21.80;23.70;;;;;;5006078;28;20986;-68
2023/09/13 05:59:25;;;;;;;9.10;6.40;;;22.30;22.00;;;;;;5003651;28;20467;-68
2023/09/13 06:01:53;;;;;;;9.57;6.50;;;22.80;20.10;;;;;;5005365;28;20479;-68
2023/09/13 06:04:20;;;;;;;12.10;6.77;;;23.30;18.20;;;;;;5019166;28;20554;-68
2023/09/13 06:06:47;;;;;;;10.00;6.80;;;23.60;16.90;;;;;;5010024;28;20487;-68
2023/09/13 06:09:13;;;;;;;8.90;6.23;;;23.60;15.70;;;;;;5017746;28;20960;-68
2023/09/13 06:11:40;;;;;;;9.13;6.43;;;23.50;15.10;;;;;;5010591;28;20967;-68
2023/09/13 06:14:08;;;;;;;9.47;6.33;;;23.30;15.10;;;;;;5011996;28;20942;-68
2023/09/13 06:16:35;;;;;;;8.40;6.37;;;23.20;15.20;;;;;;5003723;28;20946;-69
2023/09/13 06:19:03;;;;;;;9.30;6.10;;;23.00;15.50;;;;;;5009873;28;20466;-69
2023/09/13 06:21:29;;;;;;;12.03;7.00;;;23.00;15.60;;;;;;5015825;28;21101;-68
2023/09/13 06:23:56;;;;;;;9.50;6.00;;;23.00;15.70;;;;;;5007515;28;20482;-69
2023/09/13 06:26:23;;;;;;;10.03;7.70;;;23.10;15.70;;;;;;5013316;28;20498;-69
2023/09/13 06:28:49;;;;;;;12.17;6.63;;;23.10;15.70;;;;;;5007578;28;20460;-69
2023/09/13 06:31:16;;;;;;;9.77;7.00;;;23.10;15.80;;;;;;5009981;28;20471;-69
2023/09/13 06:33:43;;;;;;;12.10;6.00;;;23.60;15.30;;;;;;5004003;28;20484;-68
2023/09/13 06:36:11;;;;;;;7.93;5.60;;;23.90;14.70;;;;;;5012463;28;20467;-69
2023/09/13 06:38:38;;;;;;;7.90;6.33;;;24.70;13.40;;;;;;5012966;28;20819;-69
2023/09/13 06:41:04;;;;;;;8.90;6.50;;;25.40;11.30;;;;;;5012613;28;20460;-69
2023/09/13 06:43:31;;;;;;;8.63;6.63;;;26.20;9.70;;;;;;5014060;28;20476;-69
2023/09/13 06:45:58;;;;;;;9.93;5.90;;;27.00;7.80;;;;;;5011920;28;20469;-68
2023/09/13 06:48:24;;;;;;;8.40;5.80;;;28.20;5.80;;;;;;5011146;28;20850;-68
2023/09/13 06:50:51;;;;;;;8.67;5.13;;;30.30;2.40;;;;;;5008524;28;20452;-68
2023/09/13 06:53:19;;;;;;;8.03;5.67;;;31.80;1.00;;;;;;5015585;28;20487;-69
2023/09/13 06:55:46;;;;;;;6.33;5.20;;;32.30;1.00;;;;;;5010187;28;20475;-68
2023/09/13 06:58:13;;;;;;;8.33;6.10;;;31.70;1.00;;;;;;5010267;28;20483;-69
2023/09/13 07:00:41;;;;;;;7.50;5.13;;;30.90;1.00;;;;;;5011600;28;20470;-68
2023/09/13 07:03:08;;;;;;;8.40;5.90;;;30.40;1.00;;;;;;5012571;28;20471;-69
2023/09/13 07:05:35;;;;;;;11.90;5.97;;;30.70;1.00;;;;;;5016389;28;20520;-68
2023/09/13 07:08:03;;;;;;;7.57;5.90;;;30.20;1.00;;;;;;5007506;28;21290;-68
2023/09/13 07:10:31;;;;;;;8.03;6.40;;;29.40;1.00;;;;;;5013877;28;20538;-68
2023/09/13 07:12:58;;;;;;;10.53;6.60;;;28.70;1.00;;;;;;5010880;28;20475;-68
2023/09/13 07:15:27;;;;;;;7.90;6.20;;;28.10;1.50;;;;;;5016335;28;20486;-68
2023/09/13 07:17:53;;;;;;;8.97;6.00;;;27.70;2.40;;;;;;5011184;28;20494;-68
2023/09/13 07:20:20;;;;;;;9.53;5.70;;;27.50;3.60;;;;;;5015277;28;20636;-68
2023/09/13 07:22:47;;;;;;;8.53;6.23;;;27.40;4.00;;;;;;5011994;28;20478;-67
2023/09/13 07:25:14;;;;;;;7.83;6.00;;;27.10;4.50;;;;;;5009056;28;20991;-68
2023/09/13 07:27:42;;;;;;;7.50;5.83;;;27.10;4.90;;;;;;5012989;28;20483;-68
2023/09/13 07:30:10;;;;;;;7.67;5.80;;;27.80;4.30;;;;;;5017696;28;20456;-69
2023/09/13 07:32:37;;;;;;;8.27;6.00;;;28.70;2.60;;;;;;5012670;28;20475;-68
2023/09/13 07:35:04;;;;;;;9.67;6.20;;;29.10;2.30;;;;;;5017638;28;20479;-68
2023/09/13 07:37:31;;;;;;;9.57;6.37;;;29.60;1.10;;;;;;5016793;28;20456;-68
2023/09/13 07:39:58;;;;;;;9.17;6.40;;;29.50;1.00;;;;;;5017998;28;20460;-68
2023/09/13 07:42:24;;;;;;;15.63;7.33;;;29.00;1.10;;;;;;5007604;28;20475;-69
2023/09/13 07:44:53;;;;;;;7.67;5.70;;;28.60;1.10;;;;;;5011502;28;20526;-68
2023/09/13 07:47:20;;;;;;;8.17;7.27;;;28.20;1.90;;;;;;5008830;28;20482;-69
2023/09/13 07:49:46;;;;;;;7.70;6.00;;;27.90;2.50;;;;;;5009586;28;20470;-68
2023/09/13 07:52:14;;;;;;;9.67;5.97;;;27.60;3.10;;;;;;5006492;28;20452;-68
2023/09/13 07:54:40;;;;;;;11.80;6.10;;;27.30;3.60;;;;;;5013074;28;20475;-68
2023/09/13 07:57:06;;;;;;;8.10;6.00;;;27.10;4.20;;;;;;5016012;28;20960;-69
2023/09/13 07:59:33;;;;;;;14.40;7.47;;;26.70;5.00;;;;;;5004087;28;20197;-69
2023/09/13 08:02:01;;;;;;;23.33;7.77;;;26.40;5.70;;;;;;5007668;28;20851;-69
2023/09/13 08:04:28;;;;;;;9.37;7.30;;;26.20;6.30;;;;;;5014314;28;20704;-69
2023/09/13 08:06:54;;;;;;;11.00;7.03;;;25.90;6.90;;;;;;5010208;28;20484;-69
2023/09/13 08:09:21;;;;;;;9.50;6.57;;;25.80;7.30;;;;;;5014514;28;20563;-69
2023/09/13 08:11:48;;;;;;;9.90;7.20;;;25.60;8.20;;;;;;5010508;28;20671;-69
2023/09/13 08:14:15;;;;;;;8.20;6.70;;;25.50;8.40;;;;;;5014085;28;20478;-69
2023/09/13 08:16:42;;;;;;;8.80;6.47;;;25.40;8.60;;;;;;5011619;28;20452;-69
2023/09/13 08:19:10;;;;;;;12.30;7.13;;;25.30;8.80;;;;;;5012719;28;20459;-68
2023/09/13 08:21:37;;;;;;;7.70;6.60;;;25.10;9.10;;;;;;5010054;28;20452;-68
2023/09/13 08:24:05;;;;;;;8.10;6.50;;;25.00;9.30;;;;;;5011822;28;20472;-68
2023/09/13 08:26:31;;;;;;;10.13;7.07;;;24.90;9.90;;;;;;5013980;28;20460;-69
2023/09/13 08:29:01;;;;;;;11.80;7.90;;;24.80;10.10;;;;;;5013946;28;20483;-68
2023/09/13 08:31:28;;;;;;;10.97;7.90;;;24.70;10.40;;;;;;5008768;28;20472;-68
2023/09/13 08:33:55;;;;;;;9.90;7.10;;;24.50;10.70;;;;;;5012562;28;20853;-69
2023/09/13 08:36:23;;;;;;;9.67;7.60;;;24.40;11.10;;;;;;5006645;28;21286;-68
2023/09/13 08:38:50;;;;;;;8.10;6.90;;;24.40;11.20;;;;;;5015996;28;20451;-68
2023/09/13 08:41:17;;;;;;;10.53;6.63;;;24.30;11.60;;;;;;5004307;28;20456;-68
2023/09/13 08:43:44;;;;;;;8.70;7.23;;;24.20;11.80;;;;;;5017979;28;20529;-68
2023/09/13 08:46:14;;;;;;;11.67;7.10;;;24.10;11.90;;;;;;5014603;28;20798;-68
2023/09/13 08:48:43;;;;;;;10.20;7.20;;;24.00;12.20;;;;;;5008900;28;20481;-68
2023/09/13 08:51:11;;;;;;;10.03;7.20;;;24.00;12.30;;;;;;5010958;28;20509;-69
2023/09/13 08:53:41;;;;;;;9.40;7.20;;;23.90;12.60;;;;;;5011877;28;20992;-68
2023/09/13 08:56:09;;;;;;;7.90;6.77;;;23.80;12.80;;;;;;5016335;28;20987;-68
2023/09/13 08:58:36;;;;;;;8.67;7.27;;;23.80;12.40;;;;;;5014392;28;20463;-68
2023/09/13 09:01:09;;;;;;;9.50;6.97;;;23.70;12.40;;;;;;5016753;28;20499;-68
2023/09/13 09:03:36;;;;;;;8.80;6.10;;;23.60;12.80;;;;;;5012107;28;20503;-68
2023/09/13 09:06:04;;;;;;;8.80;7.00;;;23.50;13.00;;;;;;5010662;28;20843;-68
2023/09/13 09:08:31;;;;;;;16.57;8.53;;;23.50;13.20;;;;;;5014749;28;20495;-68
2023/09/13 09:11:00;;;;;;;19.83;8.97;;;23.50;13.50;;;;;;5012594;28;20460;-68
2023/09/13 09:13:29;;;;;;;19.23;9.30;;;23.40;13.80;;;;;;5009705;28;20849;-68
2023/09/13 09:15:59;;;;;;;11.17;8.10;;;23.40;14.00;;;;;;5012353;28;20463;-68
2023/09/13 09:18:27;;;;;;;14.60;7.67;;;23.30;14.30;;;;;;5011366;28;20443;-68
2023/09/13 09:20:54;;;;;;;9.57;7.37;;;23.30;14.40;;;;;;5011484;28;20984;-68
2023/09/13 09:23:23;;;;;;;10.30;8.47;;;23.30;14.80;;;;;;5008406;28;20471;-68
2023/09/13 09:25:51;;;;;;;12.73;7.17;;;23.30;15.20;;;;;;5012056;28;20875;-68
2023/09/13 09:28:21;;;;;;;10.00;7.00;;;23.40;15.50;;;;;;5013193;28;20575;-68
2023/09/13 09:30:48;;;;;;;9.30;7.27;;;23.40;15.70;;;;;;5007256;28;20476;-68
2023/09/13 09:33:14;;;;;;;10.93;6.70;;;23.50;15.40;;;;;;5014248;28;20483;-68
2023/09/13 09:35:52;;;;;;;11.13;6.60;;;23.60;14.60;;;;;;5010262;28;20460;-68
2023/09/13 09:38:23;;;;;;;8.70;6.60;;;23.80;13.80;;;;;;5011972;28;20451;-68
2023/09/13 09:40:50;;;;;;;13.00;6.83;;;24.00;13.20;;;;;;5005881;28;21267;-68
2023/09/13 09:43:18;;;;;;;12.03;7.93;;;24.10;13.10;;;;;;5014561;28;20475;-68
2023/09/13 09:45:45;;;;;;;8.33;7.07;;;24.20;12.80;;;;;;5006592;28;20456;-68
2023/09/13 09:48:13;;;;;;;10.77;7.77;;;24.20;12.50;;;;;;5016161;28;20485;-68
2023/09/13 09:50:44;;;;;;;9.20;6.87;;;24.20;12.50;;;;;;5011490;28;20471;-68
2023/09/13 09:53:13;;;;;;;9.47;7.07;;;24.10;13.00;;;;;;5004356;28;20979;-68
2023/09/13 09:55:41;;;;;;;8.70;6.83;;;24.10;13.30;;;;;;5011324;28;21071;-68
2023/09/13 09:58:08;;;;;;;9.60;6.53;;;24.00;12.60;;;;;;5007312;28;20490;-68
2023/09/13 10:00:46;;;;;;;8.43;7.07;;;23.90;12.70;;;;;;5008819;28;20463;-68
2023/09/13 10:03:17;;;;;;;13.93;6.50;;;23.90;13.00;;;;;;5006524;28;21029;-68
2023/09/13 10:05:52;;;;;;;15.23;7.40;;;23.80;13.10;;;;;;5007767;28;20918;-68
2023/09/13 10:08:19;;;;;;;11.03;7.60;;;23.80;13.20;;;;;;5008918;28;20475;-69
2023/09/13 10:10:46;;;;;;;11.70;7.33;;;23.80;13.20;;;;;;5009721;28;20463;-68
2023/09/13 10:13:15;;;;;;;9.20;7.40;;;23.80;13.20;;;;;;5011228;28;20479;-68
2023/09/13 10:15:42;;;;;;;11.27;8.50;;;23.80;13.30;;;;;;5011473;28;20518;-68
2023/09/13 10:18:13;;;;;;;13.20;7.97;;;23.80;13.40;;;;;;5008603;28;20444;-68
2023/09/13 10:20:43;;;;;;;9.03;7.20;;;23.80;13.80;;;;;;5010504;28;20468;-68
2023/09/13 10:23:15;;;;;;;9.50;7.13;;;23.80;14.70;;;;;;5031005;28;20472;-68
2023/09/13 10:25:44;;;;;;;9.73;8.07;;;23.80;14.70;;;;;;5009861;28;20458;-68
2023/09/13 10:28:14;;;;;;;8.90;7.30;;;23.80;14.70;;;;;;5008208;23;20515;-66
2023/09/13 10:30:45;;;;;;;11.30;7.90;;;23.70;14.80;;;;;;4991528;28;20472;-66
2023/09/13 10:33:14;;;;;;;11.67;9.30;;;23.70;14.90;;;;;;4988918;28;20483;-66
2023/09/13 10:35:45;;;;;;;10.63;8.50;;;23.60;15.20;;;;;;4993614;28;20460;-66
2023/09/13 10:38:17;;;;;;;12.70;8.40;;;23.60;16.50;;;;;;4990237;28;20499;-68
2023/09/13 10:40:50;;;;;;;10.27;8.10;;;23.60;16.80;;;;;;4988691;28;20456;-68
2023/09/13 10:43:17;;;;;;;12.53;8.60;;;23.40;17.40;;;;;;4998225;28;20576;-68
2023/09/13 10:45:44;;;;;;;8.87;7.90;;;23.40;18.20;;;;;;4995964;28;20460;-68
2023/09/13 10:48:13;;;;;;;11.50;9.00;;;23.40;19.00;;;;;;4985036;28;20485;-68
2023/09/13 10:50:39;;;;;;;13.70;7.97;;;23.40;19.30;;;;;;4994187;28;20468;-68
2023/09/13 10:53:07;;;;;;;10.80;8.23;;;23.40;19.60;;;;;;4983990;28;20460;-68
2023/09/13 10:55:34;;;;;;;11.77;7.67;;;23.40;19.50;;;;;;4993586;28;20465;-68
2023/09/13 10:58:04;;;;;;;9.60;7.87;;;23.40;19.30;;;;;;4988920;28;20459;-68
2023/09/13 11:00:32;;;;;;;10.40;8.80;;;23.50;19.30;;;;;;4998737;28;20468;-66
2023/09/13 11:02:59;;;;;;;11.93;8.50;;;23.50;18.80;;;;;;4995852;28;20551;-66
2023/09/13 11:05:28;;;;;;;11.47;7.97;;;23.60;17.80;;;;;;4985075;28;20815;-65
2023/09/13 11:07:55;;;;;;;11.53;7.57;;;23.70;17.80;;;;;;4998899;28;20488;-66
2023/09/13 11:10:22;;;;;;;10.70;8.00;;;23.80;17.80;;;;;;4997913;28;20467;-66
2023/09/13 11:12:50;;;;;;;10.67;8.33;;;24.00;16.40;;;;;;5000937;28;20472;-66
2023/09/13 11:15:21;;;;;;;12.73;7.30;;;24.10;16.00;;;;;;4993457;28;20543;-65
2023/09/13 11:17:49;;;;;;;8.40;6.73;;;24.10;15.10;;;;;;4998607;28;20456;-65
2023/09/13 11:20:23;;;;;;;12.97;7.37;;;24.30;15.30;;;;;;4994161;28;20464;-65
2023/09/13 11:23:10;;;;;;;8.20;6.70;;;24.40;15.30;;;;;;4994004;28;20474;-65
2023/09/13 11:25:38;;;;;;;9.00;7.07;;;24.40;14.80;;;;;;4993234;28;20471;-68
2023/09/13 11:28:07;;;;;;;11.17;7.67;;;24.60;13.90;;;;;;4992193;28;20488;-68
2023/09/13 11:30:47;;;;;;;9.80;7.63;;;24.60;13.50;;;;;;4996706;28;21014;-68
2023/09/13 11:33:14;;;;;;;11.27;8.03;;;24.70;13.90;;;;;;4988568;28;21067;-68
2023/09/13 11:35:41;;;;;;;13.53;10.83;;;24.80;13.60;;;;;;4984930;28;20603;-68
2023/09/13 11:38:09;;;;;;;13.30;10.37;;;25.00;13.70;;;;;;4987439;28;20460;-68
2023/09/13 11:40:37;;;;;;;13.73;9.90;;;25.20;12.90;;;;;;4982838;28;20462;-69
2023/09/13 11:43:05;;;;;;;15.93;11.07;;;25.30;12.40;;;;;;4987928;28;20567;-68
2023/09/13 11:45:35;;;;;;;10.97;9.13;;;25.40;12.10;;;;;;4983740;28;20461;-68
2023/09/13 11:48:04;;;;;;;15.57;9.50;;;25.50;11.40;;;;;;4987824;28;20484;-68
2023/09/13 11:50:42;;;;;;;11.03;8.40;;;25.50;11.40;;;;;;4987347;28;20555;-68
2023/09/13 11:53:13;;;;;;;11.73;9.43;;;25.60;11.20;;;;;;4984030;28;20460;-68
2023/09/13 11:55:43;;;;;;;13.87;10.00;;;25.70;10.90;;;;;;4983686;28;20550;-68
2023/09/13 11:58:15;;;;;;;12.23;7.70;;;25.70;10.90;;;;;;4988486;28;20453;-67
2023/09/13 12:00:42;;;;;;;8.47;6.87;;;25.70;10.40;;;;;;4987855;28;20460;-68
2023/09/13 12:03:09;;;;;;;11.00;8.00;;;25.80;9.70;;;;;;4982879;28;20467;-68
2023/09/13 12:05:38;;;;;;;13.30;8.50;;;25.80;9.60;;;;;;4983924;28;20475;-67
2023/09/13 12:08:20;;;;;;;10.63;7.70;;;25.80;9.30;;;;;;4996389;28;21049;-68
2023/09/13 12:10:49;;;;;;;9.77;8.17;;;25.60;9.60;;;;;;4990312;28;20453;-67
2023/09/13 12:13:16;;;;;;;8.13;6.63;;;25.60;10.00;;;;;;4993881;28;20504;-68
2023/09/13 12:15:59;;;;;;;12.50;9.10;;;25.60;10.10;;;;;;4994895;28;20466;-68
2023/09/13 12:18:26;;;;;;;12.90;10.70;;;25.60;10.30;;;;;;4993779;28;20492;-68
2023/09/13 12:20:52;;;;;;;12.30;11.00;;;25.50;10.30;;;;;;4985131;28;20465;-68
2023/09/13 12:23:20;;;;;;;11.20;9.67;;;25.40;10.30;;;;;;4987879;28;20496;-68
2023/09/13 12:25:47;;;;;;;14.07;11.20;;;25.30;10.70;;;;;;4989232;28;20465;-68
2023/09/13 12:28:26;;;;;;;15.07;11.17;;;25.10;11.40;;;;;;4995389;28;20468;-68
2023/09/13 12:30:53;;;;;;;13.43;11.57;;;25.00;12.30;;;;;;4991678;28;20570;-68
2023/09/13 12:33:20;;;;;;;16.50;12.70;;;24.90;12.70;;;;;;4993458;28;20497;-68
2023/09/13 12:35:48;;;;;;;16.03;13.70;;;24.80;12.90;;;;;;4984449;28;20472;-68
2023/09/13 12:38:16;;;;;;;16.10;14.10;;;24.70;13.50;;;;;;4987828;28;20539;-68
2023/09/13 12:40:52;;;;;;;16.63;14.93;;;24.60;14.00;;;;;;4984335;28;20481;-67
2023/09/13 12:43:19;;;;;;;15.77;12.90;;;24.50;14.20;;;;;;4988198;28;20575;-68
2023/09/13 12:45:46;;;;;;;15.77;11.93;;;24.50;14.30;;;;;;4995704;28;20460;-68
2023/09/13 12:48:13;;;;;;;14.67;10.50;;;24.40;14.20;;;;;;4989835;28;20945;-67